Witch Wells, Arizona
Current Conditions -  °F | °C
As of 7:54 PM on Sunday 21 Dec 2014 (Local Time) from KSJN Reporting Station
Clear Clear  
Wind Chill: 34°   Ceiling: Unl
Heat Index: 38°   Visibility: 10mi
Dew Point: 30°   Wind: 5mph
Humidity: 73%   Direction: 90°E
Pressure: 30.07"   Gusts: NA
Location:  34.4981°N, 109.241°W
Report Text: KSJN 220254Z AUTO 09004KT 10SM CLR 03/M01 A3007 RMK AO2 SLP178 T00331011 53011
Loading
Personal Weather Stations






























Interactive Weather Map New forecast layout! Learn more

10-Day Weather Forecast

Advertisements
Track Severe Weather on mobile